createdAt,value
2022-12-11T00:01:17.821Z,4.68
2022-12-11T00:03:50.800Z,4.71
2022-12-11T00:06:24.512Z,4.73
2022-12-11T00:08:57.776Z,4.75
2022-12-11T00:11:30.346Z,4.76
2022-12-11T00:14:02.917Z,4.79
2022-12-11T00:16:35.445Z,4.81
2022-12-11T00:19:08.218Z,4.85
2022-12-11T00:21:40.611Z,4.85
2022-12-11T00:24:13.374Z,4.81
2022-12-11T00:26:46.016Z,4.80
2022-12-11T00:29:19.566Z,4.79
2022-12-11T00:31:52.112Z,4.77
2022-12-11T00:34:24.692Z,4.81
2022-12-11T00:36:58.967Z,4.80
2022-12-11T00:39:32.010Z,4.74
2022-12-11T00:42:04.508Z,4.68
2022-12-11T00:44:37.649Z,4.64
2022-12-11T00:47:10.089Z,4.62
2022-12-11T00:49:48.076Z,4.60
2022-12-11T00:52:18.236Z,4.57
2022-12-11T00:54:50.858Z,4.55
2022-12-11T00:57:23.228Z,4.55
2022-12-11T00:59:55.908Z,4.57
2022-12-11T01:02:28.475Z,4.53
2022-12-11T01:05:01.112Z,4.51
2022-12-11T01:07:34.143Z,4.48
2022-12-11T01:10:25.866Z,4.47
2022-12-11T01:13:06.804Z,4.47
2022-12-11T01:15:44.859Z,4.46
2022-12-11T01:18:17.336Z,4.46
2022-12-11T01:20:50.048Z,4.48
2022-12-11T01:23:22.805Z,4.53
2022-12-11T01:25:55.328Z,4.59
2022-12-11T01:28:29.709Z,4.61
2022-12-11T01:31:02.274Z,4.57
2022-12-11T01:33:35.087Z,4.54
2022-12-11T01:36:21.170Z,4.51
2022-12-11T01:38:54.684Z,4.48
2022-12-11T01:41:27.290Z,4.41
2022-12-11T01:44:06.694Z,4.36
2022-12-11T01:46:39.530Z,4.37
2022-12-11T01:49:14.015Z,4.40
2022-12-11T01:51:59.801Z,4.38
2022-12-11T01:54:32.658Z,4.36
2022-12-11T01:57:07.907Z,4.32
2022-12-11T01:59:42.404Z,4.30
2022-12-11T02:02:21.874Z,4.33
2022-12-11T02:04:54.293Z,4.33
2022-12-11T02:07:26.701Z,4.28
2022-12-11T02:09:59.190Z,4.27
2022-12-11T02:12:51.632Z,4.21
2022-12-11T02:15:37.145Z,4.21
2022-12-11T02:18:23.237Z,4.17
2022-12-11T02:21:18.961Z,4.15
2022-12-11T02:24:16.222Z,4.16
2022-12-11T02:27:26.633Z,4.12
2022-12-11T02:30:08.306Z,4.11
2022-12-11T02:32:57.129Z,4.11
2022-12-11T02:35:42.058Z,4.09
2022-12-11T02:38:28.565Z,4.06
2022-12-11T02:41:01.367Z,4.07
2022-12-11T02:43:35.379Z,4.09
2022-12-11T02:46:08.914Z,4.11
2022-12-11T02:48:41.804Z,4.11
2022-12-11T02:51:16.723Z,4.17
2022-12-11T02:53:50.126Z,4.23
2022-12-11T02:56:32.118Z,4.28
2022-12-11T02:59:12.277Z,4.29
2022-12-11T03:01:45.597Z,4.30
2022-12-11T03:04:18.140Z,4.33
2022-12-11T03:06:52.665Z,4.35
2022-12-11T03:09:25.164Z,4.38
2022-12-11T03:11:57.618Z,4.43
2022-12-11T03:14:30.096Z,4.46
2022-12-11T03:17:22.355Z,4.47
2022-12-11T03:20:05.433Z,4.49
2022-12-11T03:22:49.233Z,4.50
2022-12-11T03:25:32.074Z,4.50
2022-12-11T03:28:20.949Z,4.53
2022-12-11T03:30:53.793Z,4.54
2022-12-11T03:33:33.231Z,4.54
2022-12-11T03:36:22.025Z,4.55
2022-12-11T03:39:14.515Z,4.57
2022-12-11T03:41:47.107Z,4.57
2022-12-11T03:44:20.590Z,4.59
2022-12-11T03:46:54.519Z,4.60
2022-12-11T03:49:29.831Z,4.59
2022-12-11T03:52:02.288Z,4.53
2022-12-11T03:54:34.990Z,4.50
2022-12-11T03:57:07.350Z,4.51
2022-12-11T03:59:40.072Z,4.50
2022-12-11T04:02:12.641Z,4.50
2022-12-11T04:04:45.348Z,4.49
2022-12-11T04:07:18.030Z,4.50
2022-12-11T04:09:50.907Z,4.53
2022-12-11T04:12:23.995Z,4.56
2022-12-11T04:15:05.436Z,4.57
2022-12-11T04:17:56.720Z,4.62
2022-12-11T04:20:47.412Z,4.60
2022-12-11T04:23:38.228Z,4.62
2022-12-11T04:26:16.459Z,4.61
2022-12-11T04:28:49.867Z,4.61
2022-12-11T04:31:23.604Z,4.59
2022-12-11T04:33:56.119Z,4.57
2022-12-11T04:36:28.449Z,4.52
2022-12-11T04:39:00.932Z,4.47
2022-12-11T04:41:33.339Z,4.48
2022-12-11T04:44:06.435Z,4.49
2022-12-11T04:46:38.911Z,4.52
2022-12-11T04:49:12.774Z,4.54
2022-12-11T04:51:45.268Z,4.56
2022-12-11T04:54:18.654Z,4.60
2022-12-11T04:56:50.997Z,4.63
2022-12-11T04:59:23.699Z,4.57
2022-12-11T05:01:56.084Z,4.54
2022-12-11T05:04:33.439Z,4.53
2022-12-11T05:07:05.809Z,4.54
2022-12-11T05:09:38.830Z,4.49
2022-12-11T05:12:11.441Z,4.47
2022-12-11T05:14:44.874Z,4.44
2022-12-11T05:17:17.421Z,4.45
2022-12-11T05:19:53.201Z,4.47
2022-12-11T05:22:26.143Z,4.49
2022-12-11T05:24:58.473Z,4.55
2022-12-11T05:27:30.934Z,4.57
2022-12-11T05:30:03.338Z,4.59
2022-12-11T05:32:36.093Z,4.62
2022-12-11T05:35:29.925Z,4.66
2022-12-11T05:38:02.476Z,4.71
2022-12-11T05:40:35.141Z,4.76
2022-12-11T05:43:07.577Z,4.73
2022-12-11T05:45:40.087Z,4.74
2022-12-11T05:48:12.603Z,4.74
2022-12-11T05:50:45.161Z,4.74
2022-12-11T05:53:17.643Z,4.78
2022-12-11T05:55:50.080Z,4.79
2022-12-11T05:58:22.568Z,4.81
2022-12-11T06:00:55.172Z,4.82
2022-12-11T06:03:27.946Z,4.86
2022-12-11T06:06:04.964Z,4.86
2022-12-11T06:08:37.854Z,4.90
2022-12-11T06:11:10.401Z,4.98
2022-12-11T06:13:44.136Z,4.99
2022-12-11T06:16:16.847Z,4.99
2022-12-11T06:18:49.398Z,4.97
2022-12-11T06:21:28.251Z,4.99
2022-12-11T06:24:03.521Z,5.00
2022-12-11T06:26:36.037Z,5.01
2022-12-11T06:29:12.626Z,4.99
2022-12-11T06:31:43.210Z,4.93
2022-12-11T06:34:16.202Z,4.93
2022-12-11T06:36:48.612Z,4.97
2022-12-11T06:39:21.174Z,5.00
2022-12-11T06:41:54.486Z,5.06
2022-12-11T06:44:28.512Z,5.11
2022-12-11T06:47:01.368Z,5.13
2022-12-11T06:49:33.939Z,5.20
2022-12-11T06:52:07.810Z,5.24
2022-12-11T06:54:40.371Z,5.27
2022-12-11T06:57:12.894Z,5.29
2022-12-11T06:59:45.899Z,5.25
2022-12-11T07:02:19.980Z,5.26
2022-12-11T07:04:55.227Z,5.27
2022-12-11T07:07:26.693Z,5.30
2022-12-11T07:10:05.785Z,5.29
2022-12-11T07:12:33.170Z,5.29
2022-12-11T07:15:06.470Z,5.34
2022-12-11T07:17:39.571Z,5.41
2022-12-11T07:20:12.930Z,5.42
2022-12-11T07:22:47.067Z,5.41
2022-12-11T07:25:27.211Z,5.42
2022-12-11T07:27:59.535Z,5.47
2022-12-11T07:30:32.469Z,5.53
2022-12-11T07:33:04.902Z,5.60
2022-12-11T07:35:38.200Z,5.66
2022-12-11T07:38:10.593Z,5.69
2022-12-11T07:40:42.953Z,5.71
2022-12-11T07:43:15.879Z,5.74
2022-12-11T07:45:48.319Z,5.78
2022-12-11T07:48:20.886Z,5.82
2022-12-11T07:50:53.290Z,5.82
2022-12-11T07:53:25.950Z,5.87
2022-12-11T07:56:00.107Z,5.91
2022-12-11T07:58:32.965Z,5.96
2022-12-11T08:01:07.063Z,5.99
2022-12-11T08:03:39.892Z,6.03
2022-12-11T08:06:12.780Z,6.06
2022-12-11T08:08:45.292Z,6.10
2022-12-11T08:11:17.800Z,6.15
2022-12-11T08:13:51.117Z,6.16
2022-12-11T08:16:24.170Z,6.16
2022-12-11T08:18:56.863Z,6.16
2022-12-11T08:21:29.564Z,6.13
2022-12-11T08:24:02.011Z,6.11
2022-12-11T08:26:35.016Z,6.10
2022-12-11T08:29:08.074Z,6.10
2022-12-11T08:31:42.197Z,6.13
2022-12-11T08:34:14.567Z,6.17
2022-12-11T08:36:47.324Z,6.18
2022-12-11T08:39:20.817Z,6.20
2022-12-11T08:41:53.433Z,6.19
2022-12-11T08:44:27.292Z,6.24
2022-12-11T08:46:59.719Z,6.28
2022-12-11T08:49:34.635Z,6.32
2022-12-11T08:52:08.551Z,6.33
2022-12-11T08:54:40.444Z,6.36
2022-12-11T08:57:14.519Z,6.39
2022-12-11T08:59:47.320Z,6.39
2022-12-11T09:02:19.974Z,6.42
2022-12-11T09:04:52.702Z,6.44
2022-12-11T09:07:25.873Z,6.48
2022-12-11T09:09:58.488Z,6.50
2022-12-11T09:12:31.737Z,6.55
2022-12-11T09:15:05.194Z,6.58
2022-12-11T09:17:37.837Z,6.58
2022-12-11T09:20:11.152Z,6.58
2022-12-11T09:22:44.688Z,6.61
2022-12-11T09:25:17.161Z,6.64
2022-12-11T09:27:49.741Z,6.69
2022-12-11T09:30:22.237Z,6.75
2022-12-11T09:32:54.929Z,6.80
2022-12-11T09:35:27.839Z,6.85
2022-12-11T09:38:00.272Z,6.91
2022-12-11T09:40:33.813Z,6.95
2022-12-11T09:43:29.992Z,6.95
2022-12-11T09:46:04.090Z,6.98
2022-12-11T09:48:36.500Z,7.02
2022-12-11T09:51:20.000Z,7.06
2022-12-11T09:53:52.488Z,7.13
2022-12-11T09:56:35.246Z,7.15
2022-12-11T09:59:33.384Z,7.20
2022-12-11T10:02:13.656Z,7.26
2022-12-11T10:05:05.993Z,7.32
2022-12-11T10:07:46.220Z,7.38
2022-12-11T10:10:55.168Z,7.46
2022-12-11T10:13:53.060Z,7.54
2022-12-11T10:16:37.024Z,7.66
2022-12-11T10:19:22.527Z,7.72
2022-12-11T10:21:55.048Z,7.83
2022-12-11T10:25:09.980Z,7.92
2022-12-11T10:27:22.660Z,8.05
2022-12-11T10:29:59.876Z,8.23
2022-12-11T10:32:45.966Z,8.33
2022-12-11T10:35:45.269Z,8.42
2022-12-11T10:38:37.708Z,8.47
2022-12-11T10:41:21.362Z,8.52
2022-12-11T10:43:54.508Z,8.57
2022-12-11T10:46:28.770Z,8.62
2022-12-11T10:49:02.369Z,8.65
2022-12-11T10:51:56.280Z,8.74
2022-12-11T10:54:38.382Z,8.74
2022-12-11T10:57:12.291Z,8.78
2022-12-11T10:59:52.153Z,8.81
2022-12-11T11:02:40.761Z,8.84
2022-12-11T11:05:32.555Z,8.90
2022-12-11T11:08:21.633Z,8.95
2022-12-11T11:10:56.062Z,8.98
2022-12-11T11:13:29.599Z,9.02
2022-12-11T11:16:14.951Z,9.07
2022-12-11T11:18:54.585Z,9.10
2022-12-11T11:21:29.251Z,9.14
2022-12-11T11:24:01.801Z,9.19
2022-12-11T11:27:11.102Z,9.24
2022-12-11T11:29:12.583Z,9.29
2022-12-11T11:31:45.647Z,9.33
2022-12-11T11:34:22.543Z,9.38
2022-12-11T11:37:01.148Z,9.42
2022-12-11T11:39:40.729Z,9.50
2022-12-11T11:42:28.160Z,9.55
2022-12-11T11:45:09.199Z,9.60
2022-12-11T11:47:55.661Z,9.65
2022-12-11T11:50:34.946Z,9.69
2022-12-11T11:53:20.510Z,9.71
2022-12-11T11:56:03.140Z,9.75
2022-12-11T11:58:45.584Z,9.77
2022-12-11T12:01:20.175Z,9.78
2022-12-11T12:03:52.807Z,9.80
2022-12-11T12:06:53.029Z,9.83
2022-12-11T12:09:39.054Z,9.86
2022-12-11T12:12:21.043Z,9.86
2022-12-11T12:15:22.066Z,9.87
2022-12-11T12:18:13.207Z,9.91
2022-12-11T12:21:23.550Z,9.93
2022-12-11T12:24:15.413Z,9.97
2022-12-11T12:27:17.608Z,9.98
2022-12-11T12:30:04.521Z,9.98
2022-12-11T12:33:02.879Z,9.97
2022-12-11T12:35:43.155Z,9.98
2022-12-11T12:38:38.372Z,9.98
2022-12-11T12:41:33.414Z,10.01
2022-12-11T12:44:26.522Z,10.02
2022-12-11T12:47:14.408Z,10.04
2022-12-11T12:49:51.463Z,10.06
2022-12-11T12:52:36.164Z,10.10
2022-12-11T12:55:24.225Z,10.13
2022-12-11T12:58:07.055Z,10.15
2022-12-11T13:00:44.323Z,10.18
2022-12-11T13:03:22.461Z,10.21
2022-12-11T13:06:05.132Z,10.24
2022-12-11T13:08:51.080Z,10.25
2022-12-11T13:11:25.330Z,10.28
2022-12-11T13:14:17.733Z,10.31
2022-12-11T13:16:53.777Z,10.34
2022-12-11T13:19:29.605Z,10.35
2022-12-11T13:22:22.407Z,10.40
2022-12-11T13:25:01.265Z,10.44
2022-12-11T13:27:41.867Z,10.50
2022-12-11T13:30:24.277Z,10.54
2022-12-11T13:33:09.422Z,10.59
2022-12-11T13:35:42.182Z,10.63
2022-12-11T13:38:20.511Z,10.69
2022-12-11T13:40:55.663Z,10.73
2022-12-11T13:43:30.847Z,10.79
2022-12-11T13:46:05.310Z,10.86
2022-12-11T13:48:48.588Z,10.95
2022-12-11T13:51:23.115Z,11.00
2022-12-11T13:54:29.376Z,11.04
2022-12-11T13:57:11.882Z,11.08
2022-12-11T13:59:56.185Z,11.10
2022-12-11T14:02:39.008Z,11.12
2022-12-11T14:05:12.923Z,11.15
2022-12-11T14:07:54.402Z,11.18
2022-12-11T14:10:28.718Z,11.20
2022-12-11T14:13:26.632Z,11.20
2022-12-11T14:15:59.189Z,11.21
2022-12-11T14:18:33.967Z,11.22
2022-12-11T14:21:07.824Z,11.23
2022-12-11T14:23:40.202Z,11.22
2022-12-11T14:26:24.569Z,11.23
2022-12-11T14:28:57.130Z,11.23
2022-12-11T14:31:37.487Z,11.21
2022-12-11T14:34:22.717Z,11.22
2022-12-11T14:36:55.326Z,11.23
2022-12-11T14:39:34.667Z,11.22
2022-12-11T14:42:16.819Z,11.24
2022-12-11T14:44:56.341Z,11.24
2022-12-11T14:47:42.604Z,11.25
2022-12-11T14:50:27.574Z,11.25
2022-12-11T14:53:07.277Z,11.24
2022-12-11T14:55:39.590Z,11.24
2022-12-11T14:58:23.925Z,11.23
2022-12-11T15:01:02.912Z,11.25
2022-12-11T15:03:40.314Z,11.25
2022-12-11T15:06:31.129Z,11.24
2022-12-11T15:09:14.613Z,11.25
2022-12-11T15:11:47.724Z,11.25
2022-12-11T15:14:23.020Z,11.25
2022-12-11T15:16:58.088Z,11.26
2022-12-11T15:19:34.029Z,11.26
2022-12-11T15:22:07.631Z,11.27
2022-12-11T15:24:42.812Z,11.28
2022-12-11T15:27:38.322Z,11.26
2022-12-11T15:30:26.370Z,11.28
2022-12-11T15:33:15.282Z,11.28
2022-12-11T15:36:07.885Z,11.27
2022-12-11T15:38:42.355Z,11.27
2022-12-11T15:41:17.649Z,11.27
2022-12-11T15:43:53.914Z,11.29
2022-12-11T15:46:24.280Z,11.28
2022-12-11T15:48:58.112Z,11.30
2022-12-11T15:51:30.576Z,11.31
2022-12-11T15:54:03.282Z,11.31
2022-12-11T15:56:36.253Z,11.31
2022-12-11T15:59:08.915Z,11.30
2022-12-11T16:01:41.304Z,11.30
2022-12-11T16:04:15.003Z,11.30
2022-12-11T16:06:47.572Z,11.30
2022-12-11T16:09:20.843Z,11.30
2022-12-11T16:11:53.194Z,11.30
2022-12-11T16:14:25.785Z,11.28
2022-12-11T16:16:58.185Z,11.31
2022-12-11T16:19:31.635Z,11.31
2022-12-11T16:22:04.885Z,11.32
2022-12-11T16:24:38.192Z,11.32
2022-12-11T16:27:10.959Z,11.33
2022-12-11T16:29:43.877Z,11.34
2022-12-11T16:32:16.421Z,11.38
2022-12-11T16:34:48.882Z,11.42
2022-12-11T16:37:21.258Z,11.42
2022-12-11T16:39:53.920Z,11.45
2022-12-11T16:42:26.325Z,11.48
2022-12-11T16:45:21.931Z,11.49
2022-12-11T16:47:54.476Z,11.50
2022-12-11T16:50:27.035Z,11.51
2022-12-11T16:52:59.575Z,11.53
2022-12-11T16:55:32.257Z,11.58
2022-12-11T16:58:04.803Z,11.60
2022-12-11T17:00:37.510Z,11.62
2022-12-11T17:03:10.015Z,11.64
2022-12-11T17:05:43.744Z,11.69
2022-12-11T17:08:16.457Z,11.73
2022-12-11T17:10:48.828Z,11.77
2022-12-11T17:13:21.500Z,11.77
2022-12-11T17:15:54.229Z,11.78
2022-12-11T17:18:26.634Z,11.80
2022-12-11T17:20:59.823Z,11.82
2022-12-11T17:23:32.526Z,11.83
2022-12-11T17:26:04.995Z,11.86
2022-12-11T17:28:37.948Z,11.88
2022-12-11T17:31:16.846Z,11.90
2022-12-11T17:33:50.105Z,11.91
2022-12-11T17:36:23.488Z,11.92
2022-12-11T17:38:56.182Z,11.94
2022-12-11T17:41:28.869Z,11.96
2022-12-11T17:44:01.280Z,11.96
2022-12-11T17:46:33.830Z,11.97
2022-12-11T17:49:06.698Z,11.96
2022-12-11T17:51:39.879Z,11.96
2022-12-11T17:54:12.338Z,11.95
2022-12-11T17:56:44.994Z,11.95
2022-12-11T17:59:18.022Z,11.96
2022-12-11T18:01:50.672Z,11.95
2022-12-11T18:04:23.019Z,11.95
2022-12-11T18:06:55.414Z,11.95
2022-12-11T18:09:28.067Z,11.96
2022-12-11T18:12:00.938Z,11.96
2022-12-11T18:14:33.328Z,11.97
2022-12-11T18:17:06.441Z,11.98
2022-12-11T18:19:44.385Z,11.98
2022-12-11T18:22:13.000Z,11.97
2022-12-11T18:24:45.340Z,11.99
2022-12-11T18:27:18.085Z,12.01
2022-12-11T18:29:50.450Z,12.02
2022-12-11T18:32:22.966Z,12.04
2022-12-11T18:34:55.500Z,12.06
2022-12-11T18:37:28.322Z,12.06
2022-12-11T18:40:00.834Z,12.06
2022-12-11T18:42:33.996Z,12.04
2022-12-11T18:45:07.657Z,12.05
2022-12-11T18:47:40.013Z,12.05
2022-12-11T18:50:14.266Z,12.06
2022-12-11T18:52:46.618Z,12.07
2022-12-11T18:55:18.961Z,12.07
2022-12-11T18:57:51.425Z,12.07
2022-12-11T19:00:24.209Z,12.07
2022-12-11T19:02:56.845Z,12.05
2022-12-11T19:05:30.424Z,11.73
2022-12-11T19:08:03.461Z,11.33
2022-12-11T19:10:37.703Z,10.96
2022-12-11T19:13:31.174Z,10.67
2022-12-11T19:16:05.238Z,10.45
2022-12-11T19:18:37.596Z,10.23
2022-12-11T19:21:12.726Z,10.03
2022-12-11T19:23:44.531Z,9.85
2022-12-11T19:26:19.794Z,9.64
2022-12-11T19:28:53.008Z,9.44
2022-12-11T19:31:26.999Z,9.29
2022-12-11T19:33:59.208Z,9.15
2022-12-11T19:36:33.666Z,9.05
2022-12-11T19:39:12.638Z,8.89
2022-12-11T19:41:40.972Z,8.66
2022-12-11T19:44:13.547Z,8.42
2022-12-11T19:46:46.228Z,8.19
2022-12-11T19:49:19.373Z,8.03
2022-12-11T19:51:51.972Z,7.91
2022-12-11T19:54:26.030Z,7.79
2022-12-11T19:56:58.341Z,7.68
2022-12-11T19:59:31.254Z,7.55
2022-12-11T20:02:03.810Z,7.45
2022-12-11T20:04:36.417Z,7.33
2022-12-11T20:07:08.794Z,7.25
2022-12-11T20:09:42.942Z,7.18
2022-12-11T20:12:15.680Z,7.13
2022-12-11T20:14:48.416Z,7.08
2022-12-11T20:17:20.917Z,7.03
2022-12-11T20:19:54.752Z,6.96
2022-12-11T20:22:27.073Z,6.88
2022-12-11T20:24:59.570Z,6.76
2022-12-11T20:27:32.355Z,6.63
2022-12-11T20:30:06.095Z,6.57
2022-12-11T20:32:38.818Z,6.54
2022-12-11T20:35:11.804Z,6.43
2022-12-11T20:37:44.985Z,6.31
2022-12-11T20:40:17.559Z,6.20
2022-12-11T20:42:50.230Z,6.15
2022-12-11T20:45:22.984Z,6.12
2022-12-11T20:47:55.369Z,6.10
2022-12-11T20:50:28.882Z,6.06
2022-12-11T20:53:01.383Z,6.04
2022-12-11T20:55:33.860Z,6.01
2022-12-11T20:58:06.169Z,5.97
2022-12-11T21:00:39.874Z,5.96
2022-12-11T21:03:12.298Z,5.92
2022-12-11T21:05:46.598Z,5.86
2022-12-11T21:08:19.846Z,5.85
2022-12-11T21:10:52.326Z,5.78
2022-12-11T21:13:25.787Z,5.68
2022-12-11T21:15:58.132Z,5.64
2022-12-11T21:18:30.730Z,5.58
2022-12-11T21:21:03.262Z,5.49
2022-12-11T21:23:36.268Z,5.44
2022-12-11T21:26:09.012Z,5.44
2022-12-11T21:28:41.561Z,5.40
2022-12-11T21:31:16.694Z,5.33
2022-12-11T21:33:49.538Z,5.25
2022-12-11T21:36:22.093Z,5.16
2022-12-11T21:38:55.205Z,5.07
2022-12-11T21:41:29.348Z,4.97
2022-12-11T21:45:14.503Z,4.91
2022-12-11T21:46:38.065Z,4.90
2022-12-11T21:49:10.693Z,4.95
2022-12-11T21:51:47.107Z,4.98
2022-12-11T21:54:19.361Z,4.92
2022-12-11T21:56:51.747Z,4.87
2022-12-11T21:59:25.016Z,4.79
2022-12-11T22:01:57.435Z,4.71
2022-12-11T22:04:30.287Z,4.63
2022-12-11T22:07:02.903Z,4.57
2022-12-11T22:09:35.162Z,4.51
2022-12-11T22:12:08.061Z,4.50
2022-12-11T22:14:40.933Z,4.52
2022-12-11T22:17:13.454Z,4.46
2022-12-11T22:19:46.441Z,4.45
2022-12-11T22:22:19.394Z,4.42
2022-12-11T22:24:52.123Z,4.38
2022-12-11T22:27:24.526Z,4.31
2022-12-11T22:29:58.680Z,4.24
2022-12-11T22:32:31.537Z,4.18
2022-12-11T22:35:04.061Z,4.17
2022-12-11T22:37:36.921Z,4.15
2022-12-11T22:40:10.645Z,4.14
2022-12-11T22:42:44.336Z,4.16
2022-12-11T22:45:16.776Z,4.15
2022-12-11T22:47:49.409Z,4.12
2022-12-11T22:50:21.919Z,4.09
2022-12-11T22:52:54.789Z,4.04
2022-12-11T22:55:27.277Z,4.04
2022-12-11T22:57:59.637Z,4.01
2022-12-11T23:00:31.949Z,3.98
2022-12-11T23:03:04.546Z,3.96
2022-12-11T23:05:39.365Z,3.96
2022-12-11T23:08:11.983Z,3.95
2022-12-11T23:10:44.763Z,3.93
2022-12-11T23:13:17.416Z,3.89
2022-12-11T23:15:50.350Z,3.87
2022-12-11T23:18:22.852Z,3.87
2022-12-11T23:20:55.770Z,3.84
2022-12-11T23:23:28.418Z,3.85
2022-12-11T23:26:00.949Z,3.86
2022-12-11T23:28:33.621Z,3.83
2022-12-11T23:31:06.652Z,3.82
2022-12-11T23:33:39.216Z,3.78
2022-12-11T23:36:12.048Z,3.73
2022-12-11T23:38:47.241Z,3.70
2022-12-11T23:41:19.423Z,3.70
2022-12-11T23:43:52.255Z,3.76
2022-12-11T23:46:25.936Z,3.77
2022-12-11T23:48:58.590Z,3.82
2022-12-11T23:51:31.249Z,3.81
2022-12-11T23:54:03.696Z,3.81
2022-12-11T23:56:36.797Z,3.81
2022-12-11T23:59:11.006Z,3.81
